createdAt,value
2022-09-02T00:02:39.806Z,8.69
2022-09-02T00:07:47.330Z,8.63
2022-09-02T00:12:54.841Z,8.58
2022-09-02T00:18:02.285Z,8.53
2022-09-02T00:23:10.158Z,8.53
2022-09-02T00:28:18.903Z,8.69
2022-09-02T00:33:28.090Z,8.81
2022-09-02T00:38:37.409Z,8.82
2022-09-02T00:43:49.119Z,8.83
2022-09-02T00:49:02.975Z,8.83
2022-09-02T00:54:12.037Z,8.82
2022-09-02T00:59:24.700Z,8.81
2022-09-02T01:04:32.462Z,8.80
2022-09-02T01:09:39.913Z,8.78
2022-09-02T01:14:47.615Z,8.76
2022-09-02T01:19:59.503Z,8.74
2022-09-02T01:25:11.849Z,8.72
2022-09-02T01:30:22.534Z,8.69
2022-09-02T01:35:30.492Z,8.66
2022-09-02T01:40:38.273Z,8.63
2022-09-02T01:45:48.154Z,8.60
2022-09-02T01:50:59.652Z,8.56
2022-09-02T01:56:07.801Z,8.52
2022-09-02T02:01:15.825Z,8.48
2022-09-02T02:06:25.488Z,8.45
2022-09-02T02:11:34.448Z,8.41
2022-09-02T02:16:42.318Z,8.37
2022-09-02T02:21:49.503Z,8.33
2022-09-02T02:26:57.631Z,8.29
2022-09-02T02:32:07.909Z,8.25
2022-09-02T02:37:15.890Z,8.22
2022-09-02T02:42:23.530Z,8.18
2022-09-02T02:47:31.149Z,8.16
2022-09-02T02:52:39.110Z,8.12
2022-09-02T02:57:47.198Z,8.09
2022-09-02T03:02:59.553Z,8.05
2022-09-02T03:08:07.449Z,8.01
2022-09-02T03:13:15.890Z,7.98
2022-09-02T03:18:24.895Z,7.93
2022-09-02T03:23:33.017Z,7.89
2022-09-02T03:28:40.887Z,7.84
2022-09-02T03:33:49.081Z,7.79
2022-09-02T03:38:58.770Z,7.75
2022-09-02T03:44:08.932Z,7.70
2022-09-02T03:49:17.027Z,7.67
2022-09-02T03:54:24.571Z,7.66
2022-09-02T03:59:32.508Z,7.64
2022-09-02T04:04:40.106Z,7.61
2022-09-02T04:09:47.479Z,7.59
2022-09-02T04:14:57.726Z,7.58
2022-09-02T04:20:07.155Z,7.56
2022-09-02T04:25:15.182Z,7.56
2022-09-02T04:30:25.081Z,7.56
2022-09-02T04:35:32.687Z,7.56
2022-09-02T04:40:44.140Z,7.61
2022-09-02T04:45:52.647Z,7.69
2022-09-02T04:51:00.967Z,7.82
2022-09-02T04:56:10.848Z,7.98
2022-09-02T05:01:21.500Z,8.18
2022-09-02T05:06:31.142Z,8.42
2022-09-02T05:11:39.649Z,8.66
2022-09-02T05:16:47.291Z,8.90
2022-09-02T05:21:59.551Z,9.13
2022-09-02T05:27:10.566Z,9.35
2022-09-02T05:32:18.173Z,9.58
2022-09-02T05:37:27.355Z,9.79
2022-09-02T05:42:35.049Z,9.99
2022-09-02T05:47:43.208Z,10.18
2022-09-02T05:52:53.994Z,10.38
2022-09-02T05:58:02.150Z,10.53
2022-09-02T06:03:09.849Z,10.52
2022-09-02T06:08:17.584Z,10.55
2022-09-02T06:13:25.046Z,10.63
2022-09-02T06:18:33.820Z,10.72
2022-09-02T06:23:42.599Z,10.83
2022-09-02T06:28:50.616Z,10.96
2022-09-02T06:33:59.695Z,11.10
2022-09-02T06:39:09.220Z,11.25
2022-09-02T06:44:17.816Z,11.41
2022-09-02T06:49:26.568Z,11.59
2022-09-02T06:54:34.047Z,11.77
2022-09-02T06:59:48.250Z,11.95
2022-09-02T07:05:15.817Z,12.13
2022-09-02T07:10:26.058Z,12.30
2022-09-02T07:15:35.780Z,12.46
2022-09-02T07:20:46.078Z,12.63
2022-09-02T07:25:53.380Z,12.80
2022-09-02T07:31:01.244Z,12.95
2022-09-02T07:36:12.405Z,13.10
2022-09-02T07:41:21.097Z,13.25
2022-09-02T07:46:30.311Z,13.40
2022-09-02T07:51:40.562Z,13.55
2022-09-02T07:56:50.174Z,13.71
2022-09-02T08:01:58.532Z,13.87
2022-09-02T08:07:06.615Z,14.03
2022-09-02T08:12:14.616Z,14.21
2022-09-02T08:17:22.988Z,14.43
2022-09-02T08:27:47.211Z,14.87
2022-09-02T08:32:54.500Z,15.06
2022-09-02T08:38:03.376Z,15.22
2022-09-02T08:43:26.354Z,15.37
2022-09-02T08:48:41.308Z,15.50
2022-09-02T08:53:56.199Z,15.62
2022-09-02T08:59:04.589Z,15.74
2022-09-02T09:04:19.801Z,15.84
2022-09-02T09:09:36.316Z,15.94
2022-09-02T09:14:51.634Z,16.03
2022-09-02T09:20:01.363Z,16.14
2022-09-02T09:25:12.495Z,16.26
2022-09-02T09:30:20.149Z,16.38
2022-09-02T09:35:28.641Z,16.49
2022-09-02T09:40:38.747Z,16.57
2022-09-02T09:45:47.749Z,16.64
2022-09-02T09:51:13.844Z,16.70
2022-09-02T09:56:38.921Z,16.77
2022-09-02T10:01:53.766Z,16.85
2022-09-02T10:07:01.314Z,16.91
2022-09-02T10:12:10.345Z,16.97
2022-09-02T10:17:29.289Z,17.00
2022-09-02T10:23:05.206Z,17.02
2022-09-02T10:28:23.851Z,17.02
2022-09-02T10:33:40.747Z,17.03
2022-09-02T10:38:49.206Z,17.05
2022-09-02T10:44:12.366Z,17.08
2022-09-02T10:49:32.763Z,17.15
2022-09-02T10:54:52.939Z,17.23
2022-09-02T11:00:08.404Z,17.32
2022-09-02T11:05:20.456Z,17.40
2022-09-02T11:10:33.093Z,17.47
2022-09-02T11:15:49.178Z,17.54
2022-09-02T11:21:05.266Z,17.62
2022-09-02T11:26:18.251Z,17.68
2022-09-02T11:31:38.848Z,17.73
2022-09-02T11:36:47.033Z,17.76
2022-09-02T11:42:26.346Z,17.79
2022-09-02T11:47:52.797Z,17.82
2022-09-02T11:53:15.856Z,17.86
2022-09-02T11:58:38.132Z,17.93
2022-09-02T12:04:16.122Z,18.01
2022-09-02T12:09:36.728Z,18.07
2022-09-02T12:15:15.556Z,18.12
2022-09-02T12:20:52.938Z,18.19
2022-09-02T12:26:07.921Z,18.24
2022-09-02T12:31:40.974Z,18.31
2022-09-02T12:36:52.781Z,18.36
2022-09-02T12:42:06.287Z,18.41
2022-09-02T12:47:26.177Z,18.47
2022-09-02T12:52:54.930Z,18.52
2022-09-02T12:58:12.907Z,18.57
2022-09-02T13:03:42.324Z,18.60
2022-09-02T13:09:22.861Z,18.61
2022-09-02T13:15:03.444Z,18.62
2022-09-02T13:20:55.640Z,18.60
2022-09-02T13:26:47.831Z,18.57
2022-09-02T13:32:12.733Z,18.54
2022-09-02T13:37:33.899Z,18.51
2022-09-02T13:42:41.178Z,18.47
2022-09-02T13:47:52.045Z,18.44
2022-09-02T13:58:41.821Z,18.40
2022-09-02T14:03:52.227Z,18.40
2022-09-02T14:09:01.978Z,18.40
2022-09-02T14:14:10.509Z,18.40
2022-09-02T14:19:27.688Z,18.40
2022-09-02T14:24:42.851Z,18.41
2022-09-02T14:29:54.889Z,18.42
2022-09-02T14:35:21.745Z,18.42
2022-09-02T14:40:43.453Z,18.42
2022-09-02T14:45:52.829Z,18.41
2022-09-02T14:51:06.359Z,18.40
2022-09-02T14:56:14.062Z,18.39
2022-09-02T15:01:21.181Z,18.38
2022-09-02T15:06:28.491Z,18.37
2022-09-02T15:11:36.163Z,18.37
2022-09-02T15:16:43.481Z,18.33
2022-09-02T15:21:50.836Z,18.31
2022-09-02T15:26:58.187Z,18.29
2022-09-02T15:32:06.029Z,18.28
2022-09-02T15:37:13.420Z,18.25
2022-09-02T15:42:20.567Z,18.24
2022-09-02T15:47:31.026Z,18.21
2022-09-02T15:52:39.311Z,18.18
2022-09-02T15:57:46.832Z,18.16
2022-09-02T16:02:54.571Z,18.13
2022-09-02T16:08:01.951Z,18.11
2022-09-02T16:13:09.112Z,18.08
2022-09-02T16:18:16.538Z,18.04
2022-09-02T16:23:24.241Z,18.01
2022-09-02T16:28:31.497Z,17.97
2022-09-02T16:33:39.104Z,17.92
2022-09-02T16:38:46.473Z,17.87
2022-09-02T16:43:54.839Z,17.83
2022-09-02T16:49:03.200Z,17.78
2022-09-02T16:54:17.518Z,17.73
2022-09-02T16:59:29.187Z,17.68
2022-09-02T17:04:36.360Z,17.64
2022-09-02T17:09:43.518Z,17.59
2022-09-02T17:14:50.638Z,17.54
2022-09-02T17:19:57.974Z,17.49
2022-09-02T17:25:05.518Z,17.43
2022-09-02T17:30:14.719Z,17.36
2022-09-02T17:35:22.195Z,17.28
2022-09-02T17:40:46.760Z,17.20
2022-09-02T17:45:55.329Z,17.10
2022-09-02T17:51:03.001Z,16.99
2022-09-02T17:56:30.725Z,16.86
2022-09-02T18:01:48.267Z,16.70
2022-09-02T18:07:05.201Z,16.53
2022-09-02T18:12:12.366Z,16.35
2022-09-02T18:17:29.098Z,16.16
2022-09-02T18:22:57.400Z,15.96
2022-09-02T18:28:14.962Z,15.76
2022-09-02T18:33:45.652Z,15.54
2022-09-02T18:39:09.189Z,15.35
2022-09-02T18:44:29.090Z,15.15
2022-09-02T18:49:39.573Z,14.94
2022-09-02T18:54:56.711Z,14.76
2022-09-02T19:00:07.878Z,14.57
2022-09-02T19:05:18.631Z,14.38
2022-09-02T19:10:26.180Z,14.19
2022-09-02T19:15:36.741Z,14.01
2022-09-02T19:20:44.793Z,13.83
2022-09-02T19:25:52.292Z,13.67
2022-09-02T19:31:04.444Z,13.52
2022-09-02T19:36:11.292Z,13.37
2022-09-02T19:41:19.612Z,13.22
2022-09-02T19:47:06.921Z,13.07
2022-09-02T19:51:55.266Z,12.92
2022-09-02T19:57:03.209Z,12.77
2022-09-02T20:02:10.720Z,12.64
2022-09-02T20:07:18.469Z,12.51
2022-09-02T20:12:25.913Z,12.38
2022-09-02T20:17:36.765Z,12.25
2022-09-02T20:22:44.236Z,12.13
2022-09-02T20:28:06.929Z,12.01
2022-09-02T20:33:20.085Z,11.89
2022-09-02T20:38:43.525Z,11.78
2022-09-02T20:44:15.283Z,11.66
2022-09-02T20:49:42.082Z,11.55
2022-09-02T20:54:56.822Z,11.43
2022-09-02T21:00:10.963Z,11.33
2022-09-02T21:05:24.434Z,11.22
2022-09-02T21:10:36.512Z,11.13
2022-09-02T21:15:50.983Z,11.02
2022-09-02T21:21:03.879Z,10.93
2022-09-02T21:26:17.836Z,10.83
2022-09-02T21:31:35.461Z,10.72
2022-09-02T21:36:43.304Z,10.61
2022-09-02T21:41:57.386Z,10.51
2022-09-02T21:47:20.075Z,10.42
2022-09-02T21:52:39.090Z,10.34
2022-09-02T21:58:02.755Z,10.24
2022-09-02T22:03:21.530Z,10.16
2022-09-02T22:08:35.022Z,10.08
2022-09-02T22:13:42.998Z,9.98
2022-09-02T22:19:00.684Z,9.90
2022-09-02T22:24:08.759Z,9.83
2022-09-02T22:29:22.197Z,9.75
2022-09-02T22:34:35.933Z,9.67
2022-09-02T22:39:50.865Z,9.60
2022-09-02T22:45:26.572Z,9.53
2022-09-02T22:50:57.752Z,9.45
2022-09-02T22:56:09.752Z,9.37
2022-09-02T23:01:28.367Z,9.30
2022-09-02T23:06:36.075Z,9.22
2022-09-02T23:11:57.296Z,9.15
2022-09-02T23:17:23.958Z,9.10
2022-09-02T23:22:51.984Z,9.04
2022-09-02T23:28:10.311Z,8.98
2022-09-02T23:33:30.578Z,8.93
2022-09-02T23:38:54.498Z,8.89
2022-09-02T23:44:02.477Z,8.88
2022-09-02T23:49:23.273Z,8.87
2022-09-02T23:54:50.649Z,8.88
